sensor_id;sensor_type;location;lat;lon;timestamp;temperature;humidity
14775;DHT22;7479;47.042;15.160;2022-07-18T05:07:13;16.30;99.90
14775;DHT22;7479;47.042;15.160;2022-07-18T05:24:55;16.90;99.90
14775;DHT22;7479;47.042;15.160;2022-07-18T05:29:49;17.10;99.90
14775;DHT22;7479;47.042;15.160;2022-07-18T05:34:43;17.40;99.90
14775;DHT22;7479;47.042;15.160;2022-07-18T05:39:36;17.80;99.90
14775;DHT22;7479;47.042;15.160;2022-07-18T05:44:32;18.00;99.90
14775;DHT22;7479;47.042;15.160;2022-07-18T05:49:26;18.30;99.90
14775;DHT22;7479;47.042;15.160;2022-07-18T05:54:20;18.90;99.90
14775;DHT22;7479;47.042;15.160;2022-07-18T05:59:14;19.30;99.90
14775;DHT22;7479;47.042;15.160;2022-07-18T06:04:09;19.40;99.90
14775;DHT22;7479;47.042;15.160;2022-07-18T06:09:04;19.50;99.90
14775;DHT22;7479;47.042;15.160;2022-07-18T06:13:58;19.60;99.90
14775;DHT22;7479;47.042;15.160;2022-07-18T06:18:54;20.00;99.90
14775;DHT22;7479;47.042;15.160;2022-07-18T06:23:50;20.20;99.90
14775;DHT22;7479;47.042;15.160;2022-07-18T06:28:43;20.30;99.90
14775;DHT22;7479;47.042;15.160;2022-07-18T06:33:40;20.40;99.90
14775;DHT22;7479;47.042;15.160;2022-07-18T06:38:34;20.60;99.90
14775;DHT22;7479;47.042;15.160;2022-07-18T06:43:30;20.70;99.90
14775;DHT22;7479;47.042;15.160;2022-07-18T06:48:24;20.70;99.90
14775;DHT22;7479;47.042;15.160;2022-07-18T06:53:18;20.80;99.90
14775;DHT22;7479;47.042;15.160;2022-07-18T06:58:12;20.90;99.90
14775;DHT22;7479;47.042;15.160;2022-07-18T07:03:08;21.10;99.90
14775;DHT22;7479;47.042;15.160;2022-07-18T07:08:02;21.30;99.90
14775;DHT22;7479;47.042;15.160;2022-07-18T07:12:56;21.40;99.90
14775;DHT22;7479;47.042;15.160;2022-07-18T07:17:50;21.60;99.90
14775;DHT22;7479;47.042;15.160;2022-07-18T07:22:47;21.80;99.90
14775;DHT22;7479;47.042;15.160;2022-07-18T07:27:41;22.00;99.90
14775;DHT22;7479;47.042;15.160;2022-07-18T07:32:35;22.30;99.90
14775;DHT22;7479;47.042;15.160;2022-07-18T07:37:29;22.40;99.90
14775;DHT22;7479;47.042;15.160;2022-07-18T07:42:25;22.70;99.90
14775;DHT22;7479;47.042;15.160;2022-07-18T07:47:18;23.00;99.90
14775;DHT22;7479;47.042;15.160;2022-07-18T07:59:07;23.40;99.90
14775;DHT22;7479;47.042;15.160;2022-07-18T08:04:01;23.50;99.90
14775;DHT22;7479;47.042;15.160;2022-07-18T08:08:55;23.80;99.90
14775;DHT22;7479;47.042;15.160;2022-07-18T08:13:50;23.90;99.60
14775;DHT22;7479;47.042;15.160;2022-07-18T08:18:45;24.10;98.80
14775;DHT22;7479;47.042;15.160;2022-07-18T08:23:39;24.30;99.40
14775;DHT22;7479;47.042;15.160;2022-07-18T08:28:33;24.50;97.40
14775;DHT22;7479;47.042;15.160;2022-07-18T08:33:27;24.60;97.70
14775;DHT22;7479;47.042;15.160;2022-07-18T08:38:22;24.70;96.50
14775;DHT22;7479;47.042;15.160;2022-07-18T08:43:17;24.80;96.80
14775;DHT22;7479;47.042;15.160;2022-07-18T08:48:15;25.00;96.10
14775;DHT22;7479;47.042;15.160;2022-07-18T08:53:10;25.30;94.90
14775;DHT22;7479;47.042;15.160;2022-07-18T08:58:05;25.40;94.40
14775;DHT22;7479;47.042;15.160;2022-07-18T09:03:19;25.50;93.00
14775;DHT22;7479;47.042;15.160;2022-07-18T09:08:14;25.80;92.30
14775;DHT22;7479;47.042;15.160;2022-07-18T09:13:10;25.90;90.70
14775;DHT22;7479;47.042;15.160;2022-07-18T09:18:05;26.00;88.00
14775;DHT22;7479;47.042;15.160;2022-07-18T09:23:19;26.20;85.40
14775;DHT22;7479;47.042;15.160;2022-07-18T09:28:15;26.40;87.00
14775;DHT22;7479;47.042;15.160;2022-07-18T09:33:10;26.50;85.20
14775;DHT22;7479;47.042;15.160;2022-07-18T09:38:06;26.80;85.30
14775;DHT22;7479;47.042;15.160;2022-07-18T09:43:01;26.90;84.40
14775;DHT22;7479;47.042;15.160;2022-07-18T09:47:59;27.00;83.60
14775;DHT22;7479;47.042;15.160;2022-07-18T09:52:58;27.20;84.10
14775;DHT22;7479;47.042;15.160;2022-07-18T09:58:15;27.40;84.40
14775;DHT22;7479;47.042;15.160;2022-07-18T10:03:11;27.70;83.20
14775;DHT22;7479;47.042;15.160;2022-07-18T10:08:08;27.70;85.20
14775;DHT22;7479;47.042;15.160;2022-07-18T10:13:04;27.90;84.90
14775;DHT22;7479;47.042;15.160;2022-07-18T10:17:59;28.20;86.90
14775;DHT22;7479;47.042;15.160;2022-07-18T10:22:57;28.30;83.90
14775;DHT22;7479;47.042;15.160;2022-07-18T10:27:54;28.60;84.00
14775;DHT22;7479;47.042;15.160;2022-07-18T10:32:48;29.00;81.90
14775;DHT22;7479;47.042;15.160;2022-07-18T10:37:42;29.00;80.90
14775;DHT22;7479;47.042;15.160;2022-07-18T10:42:37;29.30;80.30
14775;DHT22;7479;47.042;15.160;2022-07-18T10:47:31;29.50;78.70
14775;DHT22;7479;47.042;15.160;2022-07-18T10:52:55;29.80;77.20
14775;DHT22;7479;47.042;15.160;2022-07-18T10:58:21;29.90;75.30
14775;DHT22;7479;47.042;15.160;2022-07-18T11:03:27;29.80;74.20
14775;DHT22;7479;47.042;15.160;2022-07-18T11:08:21;30.30;71.70
14775;DHT22;7479;47.042;15.160;2022-07-18T11:13:28;30.30;72.80
14775;DHT22;7479;47.042;15.160;2022-07-18T11:18:24;30.60;70.00
14775;DHT22;7479;47.042;15.160;2022-07-18T11:23:20;30.60;70.80
14775;DHT22;7479;47.042;15.160;2022-07-18T11:28:16;30.90;69.40
14775;DHT22;7479;47.042;15.160;2022-07-18T11:33:24;31.00;69.90
14775;DHT22;7479;47.042;15.160;2022-07-18T11:38:18;31.10;70.90
14775;DHT22;7479;47.042;15.160;2022-07-18T11:43:20;31.20;69.00
14775;DHT22;7479;47.042;15.160;2022-07-18T11:48:22;31.20;69.80
14775;DHT22;7479;47.042;15.160;2022-07-18T11:53:16;31.50;68.70
14775;DHT22;7479;47.042;15.160;2022-07-18T11:58:10;31.80;70.20
14775;DHT22;7479;47.042;15.160;2022-07-18T12:03:10;32.00;66.90
14775;DHT22;7479;47.042;15.160;2022-07-18T12:08:32;32.00;66.70
14775;DHT22;7479;47.042;15.160;2022-07-18T12:13:49;32.30;64.80
14775;DHT22;7479;47.042;15.160;2022-07-18T12:18:49;32.30;63.80
14775;DHT22;7479;47.042;15.160;2022-07-18T12:23:47;32.40;63.30
14775;DHT22;7479;47.042;15.160;2022-07-18T12:28:41;32.50;62.30
14775;DHT22;7479;47.042;15.160;2022-07-18T12:33:35;32.90;60.90
14775;DHT22;7479;47.042;15.160;2022-07-18T12:38:29;33.00;60.20
14775;DHT22;7479;47.042;15.160;2022-07-18T12:43:26;33.00;60.50
14775;DHT22;7479;47.042;15.160;2022-07-18T12:48:21;32.90;59.30
14775;DHT22;7479;47.042;15.160;2022-07-18T12:53:14;33.30;60.00
14775;DHT22;7479;47.042;15.160;2022-07-18T12:58:10;33.50;58.10
14775;DHT22;7479;47.042;15.160;2022-07-18T13:03:06;33.50;57.10
14775;DHT22;7479;47.042;15.160;2022-07-18T13:08:00;33.90;58.20
14775;DHT22;7479;47.042;15.160;2022-07-18T13:12:54;34.30;56.10
14775;DHT22;7479;47.042;15.160;2022-07-18T13:17:49;34.40;55.50
14775;DHT22;7479;47.042;15.160;2022-07-18T13:22:45;34.40;54.10
14775;DHT22;7479;47.042;15.160;2022-07-18T13:27:44;34.30;54.20
14775;DHT22;7479;47.042;15.160;2022-07-18T13:32:38;34.50;54.10
14775;DHT22;7479;47.042;15.160;2022-07-18T13:37:33;34.20;54.50
14775;DHT22;7479;47.042;15.160;2022-07-18T13:42:29;34.30;54.00
14775;DHT22;7479;47.042;15.160;2022-07-18T13:47:23;34.50;53.40
14775;DHT22;7479;47.042;15.160;2022-07-18T13:52:16;34.60;52.60
14775;DHT22;7479;47.042;15.160;2022-07-18T13:57:10;34.60;53.70
14775;DHT22;7479;47.042;15.160;2022-07-18T14:02:05;34.80;53.60
14775;DHT22;7479;47.042;15.160;2022-07-18T14:07:00;34.80;52.90
14775;DHT22;7479;47.042;15.160;2022-07-18T14:11:54;34.90;52.00
14775;DHT22;7479;47.042;15.160;2022-07-18T14:16:48;35.00;52.70
14775;DHT22;7479;47.042;15.160;2022-07-18T14:21:43;35.30;51.40
14775;DHT22;7479;47.042;15.160;2022-07-18T14:26:37;35.10;51.30
14775;DHT22;7479;47.042;15.160;2022-07-18T14:31:31;35.00;51.50
14775;DHT22;7479;47.042;15.160;2022-07-18T14:36:25;34.90;51.20
14775;DHT22;7479;47.042;15.160;2022-07-18T14:41:21;34.80;51.80
14775;DHT22;7479;47.042;15.160;2022-07-18T14:46:15;34.60;50.40
14775;DHT22;7479;47.042;15.160;2022-07-18T14:51:09;34.60;50.60
14775;DHT22;7479;47.042;15.160;2022-07-18T14:56:03;34.80;51.50
14775;DHT22;7479;47.042;15.160;2022-07-18T15:00:59;35.10;50.10
14775;DHT22;7479;47.042;15.160;2022-07-18T15:05:53;35.00;50.60
14775;DHT22;7479;47.042;15.160;2022-07-18T15:10:47;34.90;50.60
14775;DHT22;7479;47.042;15.160;2022-07-18T15:15:44;35.00;50.20
14775;DHT22;7479;47.042;15.160;2022-07-18T15:20:41;35.00;50.00
14775;DHT22;7479;47.042;15.160;2022-07-18T15:25:36;34.90;49.60
14775;DHT22;7479;47.042;15.160;2022-07-18T15:30:30;34.80;49.00
14775;DHT22;7479;47.042;15.160;2022-07-18T15:35:41;34.70;49.20
14775;DHT22;7479;47.042;15.160;2022-07-18T15:40:35;34.70;49.10
14775;DHT22;7479;47.042;15.160;2022-07-18T15:45:29;34.50;49.10
14775;DHT22;7479;47.042;15.160;2022-07-18T15:50:23;34.70;48.80
14775;DHT22;7479;47.042;15.160;2022-07-18T15:55:19;34.40;48.80
14775;DHT22;7479;47.042;15.160;2022-07-18T16:00:21;34.50;48.70
14775;DHT22;7479;47.042;15.160;2022-07-18T16:05:15;34.30;49.10
14775;DHT22;7479;47.042;15.160;2022-07-18T16:10:09;34.00;50.30
14775;DHT22;7479;47.042;15.160;2022-07-18T16:15:05;33.90;50.30
14775;DHT22;7479;47.042;15.160;2022-07-18T16:20:00;33.90;49.80
14775;DHT22;7479;47.042;15.160;2022-07-18T16:24:54;33.80;50.00
14775;DHT22;7479;47.042;15.160;2022-07-18T16:29:48;33.60;50.00
14775;DHT22;7479;47.042;15.160;2022-07-18T16:34:49;33.40;51.10
14775;DHT22;7479;47.042;15.160;2022-07-18T16:39:43;33.00;51.00
14775;DHT22;7479;47.042;15.160;2022-07-18T16:44:37;32.70;52.20
14775;DHT22;7479;47.042;15.160;2022-07-18T16:49:31;32.60;51.20
14775;DHT22;7479;47.042;15.160;2022-07-18T16:54:26;32.50;51.80
14775;DHT22;7479;47.042;15.160;2022-07-18T16:59:21;32.20;53.40
14775;DHT22;7479;47.042;15.160;2022-07-18T17:04:15;31.90;53.70
14775;DHT22;7479;47.042;15.160;2022-07-18T17:09:09;31.80;53.00
14775;DHT22;7479;47.042;15.160;2022-07-18T17:14:05;31.80;53.10
14775;DHT22;7479;47.042;15.160;2022-07-18T17:19:00;31.60;52.60
14775;DHT22;7479;47.042;15.160;2022-07-18T17:23:54;31.40;52.80
14775;DHT22;7479;47.042;15.160;2022-07-18T17:28:49;31.30;53.10
14775;DHT22;7479;47.042;15.160;2022-07-18T17:33:44;31.10;53.50
14775;DHT22;7479;47.042;15.160;2022-07-18T17:38:39;30.70;54.60
14775;DHT22;7479;47.042;15.160;2022-07-18T17:43:33;30.30;55.80
14775;DHT22;7479;47.042;15.160;2022-07-18T17:48:28;30.10;56.60
14775;DHT22;7479;47.042;15.160;2022-07-18T17:53:23;30.60;56.20
14775;DHT22;7479;47.042;15.160;2022-07-18T17:58:18;31.80;55.00
14775;DHT22;7479;47.042;15.160;2022-07-18T18:03:13;32.80;52.90
14775;DHT22;7479;47.042;15.160;2022-07-18T18:08:07;31.40;54.00
14775;DHT22;7479;47.042;15.160;2022-07-18T18:13:02;30.00;56.40
14775;DHT22;7479;47.042;15.160;2022-07-18T18:17:56;29.10;58.80
14775;DHT22;7479;47.042;15.160;2022-07-18T18:22:50;28.50;59.80
14775;DHT22;7479;47.042;15.160;2022-07-18T18:27:46;27.90;62.00
14775;DHT22;7479;47.042;15.160;2022-07-18T18:32:42;27.60;63.00
14775;DHT22;7479;47.042;15.160;2022-07-18T18:37:36;27.30;64.00
14775;DHT22;7479;47.042;15.160;2022-07-18T18:42:30;27.00;68.00
14775;DHT22;7479;47.042;15.160;2022-07-18T18:47:24;26.70;68.00
14775;DHT22;7479;47.042;15.160;2022-07-18T18:52:19;26.40;70.00
14775;DHT22;7479;47.042;15.160;2022-07-18T18:57:15;26.20;70.50
14775;DHT22;7479;47.042;15.160;2022-07-18T19:02:08;26.00;70.90
14775;DHT22;7479;47.042;15.160;2022-07-18T19:07:03;25.80;71.30
14775;DHT22;7479;47.042;15.160;2022-07-18T19:12:00;25.70;72.30
14775;DHT22;7479;47.042;15.160;2022-07-18T19:16:54;25.50;74.00
14775;DHT22;7479;47.042;15.160;2022-07-18T19:21:48;25.40;74.10
14775;DHT22;7479;47.042;15.160;2022-07-18T19:26:42;25.20;74.70
14775;DHT22;7479;47.042;15.160;2022-07-18T19:31:37;25.00;76.60
14775;DHT22;7479;47.042;15.160;2022-07-18T19:36:33;24.80;77.30
14775;DHT22;7479;47.042;15.160;2022-07-18T19:41:27;24.60;78.20
14775;DHT22;7479;47.042;15.160;2022-07-18T19:46:21;24.40;78.40
14775;DHT22;7479;47.042;15.160;2022-07-18T19:51:16;24.30;79.40
14775;DHT22;7479;47.042;15.160;2022-07-18T19:56:10;24.20;79.70
14775;DHT22;7479;47.042;15.160;2022-07-18T20:01:04;24.10;80.50
14775;DHT22;7479;47.042;15.160;2022-07-18T20:05:58;24.10;81.40
14775;DHT22;7479;47.042;15.160;2022-07-18T20:10:54;24.00;81.80
14775;DHT22;7479;47.042;15.160;2022-07-18T20:15:48;23.80;82.70
14775;DHT22;7479;47.042;15.160;2022-07-18T20:20:42;23.70;83.50
14775;DHT22;7479;47.042;15.160;2022-07-18T20:25:35;23.70;85.50
14775;DHT22;7479;47.042;15.160;2022-07-18T20:30:31;23.60;85.60
14775;DHT22;7479;47.042;15.160;2022-07-18T20:41:12;23.40;87.10
14775;DHT22;7479;47.042;15.160;2022-07-18T20:46:08;23.20;88.40
14775;DHT22;7479;47.042;15.160;2022-07-18T20:51:04;23.10;89.10
14775;DHT22;7479;47.042;15.160;2022-07-18T20:55:58;23.00;89.30
14775;DHT22;7479;47.042;15.160;2022-07-18T21:00:52;22.90;89.60
14775;DHT22;7479;47.042;15.160;2022-07-18T21:05:48;22.60;90.70
14775;DHT22;7479;47.042;15.160;2022-07-18T21:10:41;22.40;91.10
14775;DHT22;7479;47.042;15.160;2022-07-18T21:15:36;22.30;91.00
14775;DHT22;7479;47.042;15.160;2022-07-18T21:20:30;22.20;91.10
14775;DHT22;7479;47.042;15.160;2022-07-18T21:25:26;22.10;91.60
14775;DHT22;7479;47.042;15.160;2022-07-18T21:30:20;22.00;91.90
14775;DHT22;7479;47.042;15.160;2022-07-18T21:35:16;21.90;92.10
14775;DHT22;7479;47.042;15.160;2022-07-18T21:40:10;21.80;92.50
14775;DHT22;7479;47.042;15.160;2022-07-18T21:45:07;21.60;93.00
14775;DHT22;7479;47.042;15.160;2022-07-18T21:50:01;21.50;93.40
